Time;durP1;ratioP1;P1;durP2;ratioP2;P2;SDS_P1;SDS_P2;PMS_P1;PMS_P2;Temp;Humidity;BMP_temperature;BMP_pressure;BME280_temperature;BME280_humidity;BME280_pressure;Samples;Min_cycle;Max_cycle;Signal;HPM_P1;HPM_P2
2024/01/21 00:00:32;;;;;;;;;7.00;7.00;;;;;18.81;44.40;102055.98;34503;1269;19981;-71
2024/01/21 00:01:39;;;;;;;;;6.00;6.00;;;;;18.80;44.66;102061.23;34505;1268;21494;-71
2024/01/21 00:02:27;;;;;;;;;8.00;8.00;;;;;18.79;44.71;102061.52;34514;1253;20253;-71
2024/01/21 00:03:14;;;;;;;;;8.00;8.00;;;;;18.78;44.56;102062.92;34476;1268;18803;-71
2024/01/21 00:04:02;;;;;;;;;5.00;5.00;;;;;18.78;44.74;102063.72;34527;1269;18627;-71
2024/01/21 00:04:49;;;;;;;;;5.00;5.00;;;;;18.76;44.78;102065.36;34478;1269;19949;-71
2024/01/21 00:05:36;;;;;;;;;10.00;7.00;;;;;18.75;44.75;102065.33;34536;1269;18611;-71
2024/01/21 00:06:24;;;;;;;;;7.00;7.00;;;;;18.74;44.96;102064.70;34483;1260;19107;-71
2024/01/21 00:07:11;;;;;;;;;7.00;7.00;;;;;18.73;45.03;102065.34;34544;1269;18623;-70
2024/01/21 00:07:59;;;;;;;;;9.00;8.00;;;;;18.74;44.84;102063.50;34483;1269;20958;-71
2024/01/21 00:08:46;;;;;;;;;8.00;7.00;;;;;18.72;44.59;102061.59;34558;1268;18653;-70
2024/01/21 00:09:34;;;;;;;;;10.00;10.00;;;;;18.70;44.97;102062.08;34478;1269;18918;-70
2024/01/21 00:10:21;;;;;;;;;7.00;5.00;;;;;18.69;45.22;102062.33;34491;1269;20207;-70
2024/01/21 00:11:08;;;;;;;;;6.00;6.00;;;;;18.68;45.17;102060.92;34492;1269;19983;-71
2024/01/21 00:11:56;;;;;;;;;7.00;7.00;;;;;18.68;45.29;102061.14;34490;1260;18826;-71
2024/01/21 00:12:43;;;;;;;;;5.50;5.00;;;;;18.68;45.20;102065.48;34498;1269;21613;-70
2024/01/21 00:13:31;;;;;;;;;8.00;7.00;;;;;18.68;45.30;102063.19;34490;1253;20032;-71
2024/01/21 00:14:18;;;;;;;;;5.00;5.00;;;;;18.68;45.11;102066.14;34484;1253;20040;-70
2024/01/21 00:15:05;;;;;;;;;8.00;7.33;;;;;18.68;45.26;102066.56;34488;1268;21091;-71
2024/01/21 00:15:53;;;;;;;;;7.00;5.00;;;;;18.67;45.31;102067.25;34479;1260;18867;-70
2024/01/21 00:16:40;;;;;;;;;7.00;5.00;;;;;18.66;44.98;102071.63;34502;1269;19982;-70
2024/01/21 00:17:28;;;;;;;;;8.00;8.00;;;;;18.66;45.13;102067.21;34491;1268;18621;-71
2024/01/21 00:18:16;;;;;;;;;5.00;5.00;;;;;18.65;45.25;102067.64;34498;1269;18791;-71
2024/01/21 00:19:03;;;;;;;;;4.00;4.00;;;;;18.66;45.33;102068.63;34484;1269;19941;-70
2024/01/21 00:19:51;;;;;;;;;7.00;7.00;;;;;18.66;45.15;102069.59;34479;1269;20301;-70
2024/01/21 00:20:38;;;;;;;;;5.00;5.00;;;;;18.66;45.13;102067.76;34458;1269;21099;-71
2024/01/21 00:21:26;;;;;;;;;7.00;5.00;;;;;18.67;45.17;102067.29;34481;1269;19971;-70
2024/01/21 00:22:13;;;;;;;;;5.00;5.00;;;;;18.66;45.23;102066.46;34499;1269;20003;-70
2024/01/21 00:23:01;;;;;;;;;5.00;5.00;;;;;18.66;45.31;102065.87;34499;1253;19992;-70
2024/01/21 00:23:48;;;;;;;;;5.00;5.00;;;;;18.66;45.22;102067.05;34476;1269;19908;-70
2024/01/21 00:24:35;;;;;;;;;7.00;5.00;;;;;18.65;45.14;102065.63;34491;1268;18715;-70
2024/01/21 00:25:23;;;;;;;;;5.00;5.00;;;;;18.65;45.25;102069.14;34514;1253;20042;-70
2024/01/21 00:26:10;;;;;;;;;5.00;5.00;;;;;18.65;45.16;102067.92;34511;1269;18751;-70
2024/01/21 00:26:58;;;;;;;;;7.00;7.00;;;;;18.64;45.09;102072.58;34504;1269;18627;-70
2024/01/21 00:27:45;;;;;;;;;4.00;4.00;;;;;18.63;45.18;102070.88;34518;1253;20202;-70
2024/01/21 00:28:33;;;;;;;;;4.50;4.25;;;;;18.63;45.20;102069.66;34505;1253;20031;-70
2024/01/21 00:29:20;;;;;;;;;6.00;4.50;;;;;18.62;45.18;102074.68;34538;1253;20064;-70
2024/01/21 00:30:07;;;;;;;;;5.00;5.00;;;;;18.62;45.21;102070.34;34531;1269;19977;-71
2024/01/21 00:30:55;;;;;;;;;5.00;5.00;;;;;18.62;45.34;102074.52;34495;1269;18953;-70
2024/01/21 00:31:42;;;;;;;;;5.00;5.00;;;;;18.62;45.38;102075.94;34527;1269;19891;-71
2024/01/21 00:32:30;;;;;;;;;8.00;7.00;;;;;18.62;45.22;102081.53;34507;1269;18910;-74
2024/01/21 00:33:17;;;;;;;;;7.00;6.33;;;;;18.62;45.34;102080.23;34554;1269;18840;-70
2024/01/21 00:34:04;;;;;;;;;7.00;7.00;;;;;18.62;45.34;102079.86;34531;1269;20170;-70
2024/01/21 00:34:52;;;;;;;;;7.00;5.00;;;;;18.62;45.36;102082.57;34565;1268;18595;-70
2024/01/21 00:35:39;;;;;;;;;5.00;5.00;;;;;18.62;45.37;102078.16;34499;1269;18677;-70
2024/01/21 00:36:27;;;;;;;;;4.33;4.00;;;;;18.62;45.42;102078.64;34582;1253;19995;-70
2024/01/21 00:37:15;;;;;;;;;7.00;7.00;;;;;18.62;45.35;102081.57;34521;1269;20000;-70
2024/01/21 00:38:03;;;;;;;;;7.00;7.00;;;;;18.61;45.15;102078.98;34537;1253;21752;-71
2024/01/21 00:38:50;;;;;;;;;5.00;5.00;;;;;18.61;45.36;102081.86;34527;1253;18617;-71
2024/01/21 00:39:38;;;;;;;;;7.50;7.50;;;;;18.60;45.35;102083.40;34519;1269;20978;-71
2024/01/21 00:40:25;;;;;;;;;7.00;7.00;;;;;18.61;45.13;102084.83;34525;1253;21757;-71
2024/01/21 00:41:12;;;;;;;;;7.00;7.00;;;;;18.60;45.13;102086.31;34520;1260;19591;-71
2024/01/21 00:42:00;;;;;;;;;5.00;5.00;;;;;18.60;45.38;102089.58;34516;1269;21308;-72
2024/01/21 00:42:47;;;;;;;;;7.00;5.00;;;;;18.60;45.31;102091.95;34541;1260;18888;-71
2024/01/21 00:43:35;;;;;;;;;8.00;7.00;;;;;18.60;45.12;102092.09;34507;1269;18924;-71
2024/01/21 00:44:22;;;;;;;;;7.00;5.00;;;;;18.61;44.91;102093.27;34550;1269;20005;-71
2024/01/21 00:45:10;;;;;;;;;5.00;5.00;;;;;18.62;44.89;102094.01;34493;1269;20003;-71
2024/01/21 00:45:57;;;;;;;;;7.00;7.00;;;;;18.65;44.87;102097.57;34542;1269;19994;-70
2024/01/21 00:46:44;;;;;;;;;6.00;5.00;;;;;18.68;44.72;102099.09;34474;1269;19944;-70
2024/01/21 00:47:32;;;;;;;;;5.00;5.00;;;;;18.71;44.71;102100.11;34582;1260;18517;-70
2024/01/21 00:48:19;;;;;;;;;6.00;6.00;;;;;18.73;44.52;102100.88;34477;1268;19995;-70
2024/01/21 00:49:07;;;;;;;;;5.00;5.00;;;;;18.76;44.52;102102.48;34538;1253;19993;-70
2024/01/21 00:49:54;;;;;;;;;5.00;5.00;;;;;18.79;44.50;102107.09;34460;1269;20139;-70
2024/01/21 00:50:42;;;;;;;;;7.00;7.00;;;;;18.81;44.29;102106.48;34483;1269;18655;-70
2024/01/21 00:51:29;;;;;;;;;7.00;7.00;;;;;18.83;44.40;102105.47;34469;1269;18588;-70
2024/01/21 00:52:16;;;;;;;;;5.00;5.00;;;;;18.84;44.48;102108.05;34457;1269;19991;-70
2024/01/21 00:53:04;;;;;;;;;5.00;5.00;;;;;18.84;44.48;102108.88;34481;1253;18599;-70
2024/01/21 00:53:51;;;;;;;;;5.00;4.00;;;;;18.85;44.15;102111.45;34494;1269;18637;-70
2024/01/21 00:54:39;;;;;;;;;7.00;7.00;;;;;18.85;44.27;102111.08;34489;1253;20100;-70
2024/01/21 00:55:26;;;;;;;;;7.00;7.00;;;;;18.86;44.31;102113.66;34480;1269;18532;-70
2024/01/21 00:56:13;;;;;;;;;7.00;7.00;;;;;18.87;44.18;102112.39;34486;1269;18609;-70
2024/01/21 00:57:02;;;;;;;;;8.00;7.00;;;;;18.87;44.38;102110.05;34507;1269;19942;-70
2024/01/21 00:57:49;;;;;;;;;8.00;7.00;;;;;18.88;44.28;102111.34;34461;1268;18823;-70
2024/01/21 00:58:37;;;;;;;;;5.00;5.00;;;;;18.88;44.33;102109.01;34470;1269;18647;-70
2024/01/21 00:59:24;;;;;;;;;7.00;7.00;;;;;18.89;44.15;102108.16;34484;1269;18616;-70
2024/01/21 01:00:11;;;;;;;;;5.00;5.00;;;;;18.90;44.09;102107.90;34502;1268;18965;-70
2024/01/21 01:00:59;;;;;;;;;6.33;6.33;;;;;18.88;44.25;102107.54;34473;1263;18682;-69
2024/01/21 01:01:46;;;;;;;;;8.00;7.00;;;;;18.88;44.07;102110.09;34489;1269;18615;-70
2024/01/21 01:02:34;;;;;;;;;9.00;7.00;;;;;18.89;44.04;102108.20;34499;1269;18619;-71
2024/01/21 01:03:21;;;;;;;;;7.50;7.50;;;;;18.89;44.30;102113.16;34503;1269;19865;-70
2024/01/21 01:04:09;;;;;;;;;5.00;5.00;;;;;18.89;44.15;102112.71;34493;1253;20042;-70
2024/01/21 01:04:56;;;;;;;;;7.00;5.00;;;;;18.88;43.98;102117.15;34488;1268;19120;-70
2024/01/21 01:05:44;;;;;;;;;9.33;7.67;;;;;18.87;44.20;102116.41;34495;1252;20218;-70
2024/01/21 01:06:31;;;;;;;;;5.00;5.00;;;;;18.87;44.18;102120.59;34529;1269;18629;-70
2024/01/21 01:07:18;;;;;;;;;5.00;5.00;;;;;18.86;44.07;102123.43;34508;1269;18639;-70
2024/01/21 01:08:06;;;;;;;;;5.00;5.00;;;;;18.85;44.25;102120.73;34541;1253;18804;-70
2024/01/21 01:08:53;;;;;;;;;7.00;7.00;;;;;18.85;44.08;102120.89;34512;1269;18586;-70
2024/01/21 01:09:41;;;;;;;;;5.00;5.00;;;;;18.84;44.40;102122.61;34473;1269;19969;-70
2024/01/21 01:10:28;;;;;;;;;4.50;4.50;;;;;18.85;44.17;102124.32;34518;1269;19981;-71
2024/01/21 01:11:15;;;;;;;;;8.00;8.00;;;;;18.85;44.11;102124.48;34482;1269;20137;-71
2024/01/21 01:12:03;;;;;;;;;5.00;5.00;;;;;18.84;44.13;102125.59;34526;1268;19941;-70
2024/01/21 01:12:50;;;;;;;;;6.00;5.00;;;;;18.83;43.99;102125.71;34488;1269;19904;-70
2024/01/21 01:13:38;;;;;;;;;4.50;4.50;;;;;18.82;44.17;102128.02;34538;1254;21418;-70
2024/01/21 01:14:25;;;;;;;;;5.00;5.00;;;;;18.82;44.21;102131.54;34494;1253;18712;-70
2024/01/21 01:15:13;;;;;;;;;7.50;7.00;;;;;18.81;44.04;102134.55;34549;1253;20122;-70
2024/01/21 01:16:00;;;;;;;;;8.00;7.00;;;;;18.81;44.15;102130.71;34518;1269;18842;-70
2024/01/21 01:16:48;;;;;;;;;8.00;7.00;;;;;18.81;44.01;102131.71;34516;1269;18631;-70
2024/01/21 01:17:35;;;;;;;;;7.50;7.00;;;;;18.79;44.10;102131.17;34494;1269;20086;-70
2024/01/21 01:18:23;;;;;;;;;5.00;5.00;;;;;18.80;44.16;102130.22;34518;1269;19994;-70
2024/01/21 01:19:10;;;;;;;;;5.00;5.00;;;;;18.78;44.02;102135.45;34515;1268;18535;-70
2024/01/21 01:19:58;;;;;;;;;7.00;7.00;;;;;18.78;44.07;102135.00;34535;1269;18919;-70
2024/01/21 01:20:46;;;;;;;;;5.00;5.00;;;;;18.78;44.35;102130.11;34518;1263;18656;-70
2024/01/21 01:21:33;;;;;;;;;7.00;7.00;;;;;18.76;44.18;102132.13;34488;1252;20172;-70
2024/01/21 01:22:21;;;;;;;;;5.00;5.00;;;;;18.75;44.18;102128.26;34478;1269;20275;-70
2024/01/21 01:23:08;;;;;;;;;5.00;5.00;;;;;18.74;44.18;102128.59;34498;1268;18755;-70
2024/01/21 01:23:56;;;;;;;;;7.00;7.00;;;;;18.74;44.22;102129.52;34497;1269;19974;-70
2024/01/21 01:24:43;;;;;;;;;7.00;7.00;;;;;18.74;44.41;102127.55;34492;1268;20004;-70
2024/01/21 01:25:31;;;;;;;;;7.00;5.00;;;;;18.74;44.20;102127.23;34497;1269;21223;-70
2024/01/21 01:26:18;;;;;;;;;7.00;7.00;;;;;18.73;44.44;102126.98;34533;1252;20320;-70
2024/01/21 01:27:06;;;;;;;;;7.00;7.00;;;;;18.72;44.37;102128.11;34478;1269;21182;-70
2024/01/21 01:27:53;;;;;;;;;6.00;6.00;;;;;18.71;44.29;102125.41;34522;1260;18614;-70
2024/01/21 01:28:41;;;;;;;;;10.00;7.00;;;;;18.71;44.27;102128.16;34487;1260;19985;-70
2024/01/21 01:29:28;;;;;;;;;7.00;5.00;;;;;18.70;44.30;102126.96;34508;1268;21294;-70
2024/01/21 01:30:16;;;;;;;;;6.00;5.00;;;;;18.70;44.48;102128.96;34514;1269;21117;-70
2024/01/21 01:31:03;;;;;;;;;6.00;5.00;;;;;18.69;44.44;102130.44;34492;1260;20202;-70
2024/01/21 01:31:50;;;;;;;;;7.00;5.00;;;;;18.69;44.47;102129.40;34522;1268;18633;-70
2024/01/21 01:32:38;;;;;;;;;7.00;5.00;;;;;18.68;44.47;102130.62;34514;1260;20044;-70
2024/01/21 01:33:25;;;;;;;;;7.00;5.00;;;;;18.68;44.43;102131.70;34526;1268;19969;-70
2024/01/21 01:34:13;;;;;;;;;5.00;5.00;;;;;18.67;44.47;102134.46;34536;1269;19946;-70
2024/01/21 01:35:00;;;;;;;;;5.67;5.00;;;;;18.66;44.35;102132.85;34534;1269;21042;-70
2024/01/21 01:35:48;;;;;;;;;5.00;5.00;;;;;18.66;44.52;102135.89;34522;1260;20054;-70
2024/01/21 01:36:35;;;;;;;;;6.00;5.00;;;;;18.66;44.67;102136.86;34563;1268;20032;-70
2024/01/21 01:37:22;;;;;;;;;5.00;5.00;;;;;18.65;44.61;102132.31;34521;1253;21524;-70
2024/01/21 01:38:12;;;;;;;;;5.00;5.00;;;;;18.63;44.57;102136.67;34511;1268;19982;-70
2024/01/21 01:38:59;;;;;;;;;7.00;7.00;;;;;18.63;44.53;102136.42;34464;1269;19940;-70
2024/01/21 01:39:47;;;;;;;;;4.00;4.00;;;;;18.63;44.55;102138.02;34477;1254;20068;-70
2024/01/21 01:40:34;;;;;;;;;4.50;4.50;;;;;18.63;44.44;102138.39;34464;1269;20064;-70
2024/01/21 01:41:21;;;;;;;;;5.00;5.00;;;;;18.63;44.75;102141.80;34514;1268;18619;-70
2024/01/21 01:42:09;;;;;;;;;6.00;6.00;;;;;18.63;44.65;102143.05;34482;1269;18631;-70
2024/01/21 01:42:57;;;;;;;;;5.00;4.33;;;;;18.63;44.65;102145.98;34513;1269;19849;-70
2024/01/21 01:43:45;;;;;;;;;5.00;5.00;;;;;18.63;44.54;102141.85;34525;1268;19174;-70
2024/01/21 01:44:32;;;;;;;;;8.00;7.00;;;;;18.63;44.58;102146.69;34412;1264;19305;-70
2024/01/21 01:45:19;;;;;;;;;6.33;5.00;;;;;18.62;44.61;102149.37;34495;1254;22647;-70
2024/01/21 01:46:07;;;;;;;;;8.00;7.00;;;;;18.61;44.55;102147.29;34439;1269;20032;-70
2024/01/21 01:46:54;;;;;;;;;5.00;5.00;;;;;18.62;44.78;102147.58;34532;1268;18621;-70
2024/01/21 01:47:42;;;;;;;;;5.00;5.00;;;;;18.62;44.80;102148.67;34482;1253;20220;-70
2024/01/21 01:48:29;;;;;;;;;5.00;5.00;;;;;18.62;44.73;102146.08;34466;1264;20109;-70
2024/01/21 01:49:17;;;;;;;;;7.00;5.00;;;;;18.62;44.68;102144.90;34485;1269;18633;-70
2024/01/21 01:50:04;;;;;;;;;6.33;5.00;;;;;18.61;44.88;102148.75;34510;1268;18626;-71
2024/01/21 01:50:52;;;;;;;;;5.00;5.00;;;;;18.61;44.51;102147.17;34503;1268;19895;-70
2024/01/21 01:51:39;;;;;;;;;5.00;4.67;;;;;18.61;44.83;102148.21;34486;1269;19954;-70
2024/01/21 01:52:27;;;;;;;;;5.00;5.00;;;;;18.61;44.68;102149.30;34509;1268;19958;-70
2024/01/21 01:53:14;;;;;;;;;4.00;4.00;;;;;18.61;44.77;102149.34;34474;1253;20389;-70
2024/01/21 01:54:01;;;;;;;;;5.00;5.00;;;;;18.61;44.83;102152.42;34521;1268;19993;-70
2024/01/21 01:54:49;;;;;;;;;4.00;4.00;;;;;18.61;44.69;102153.73;34479;1269;20168;-70
2024/01/21 01:55:36;;;;;;;;;5.00;5.00;;;;;18.60;44.83;102150.73;34541;1269;18628;-70
2024/01/21 01:56:24;;;;;;;;;7.00;5.00;;;;;18.61;44.68;102152.42;34499;1253;20049;-70
2024/01/21 01:57:11;;;;;;;;;4.00;4.00;;;;;18.60;44.60;102153.58;34555;1268;18682;-70
2024/01/21 01:57:58;;;;;;;;;7.00;5.00;;;;;18.60;44.51;102150.19;34493;1268;18636;-71
2024/01/21 01:58:46;;;;;;;;;4.00;4.00;;;;;18.59;44.83;102151.16;34497;1269;20250;-71
2024/01/21 01:59:33;;;;;;;;;5.00;5.00;;;;;18.60;44.66;102154.38;34452;1269;18819;-71
2024/01/21 02:00:21;;;;;;;;;7.25;6.00;;;;;18.60;44.70;102154.70;34521;1269;20078;-71
2024/01/21 02:01:08;;;;;;;;;5.00;5.00;;;;;18.60;44.69;102159.05;34492;1268;20062;-71
2024/01/21 02:01:56;;;;;;;;;5.00;5.00;;;;;18.60;44.86;102160.17;34579;1260;18639;-71
2024/01/21 02:02:43;;;;;;;;;5.00;5.00;;;;;18.60;44.63;102159.46;34511;1268;18626;-71
2024/01/21 02:03:31;;;;;;;;;4.00;4.00;;;;;18.60;44.89;102160.73;34560;1269;20387;-71
2024/01/21 02:04:18;;;;;;;;;490.00;490.00;;;;;18.60;44.56;102160.67;34470;1254;20098;-72
2024/01/21 02:05:05;;;;;;;;;7.00;7.00;;;;;18.62;44.55;102162.27;34569;1268;20378;-72
2024/01/21 02:05:53;;;;;;;;;5.00;5.00;;;;;18.63;44.36;102159.35;34471;1253;20083;-72
2024/01/21 02:06:40;;;;;;;;;7.00;7.00;;;;;18.67;44.36;102159.69;34591;1268;19918;-72
2024/01/21 02:07:28;;;;;;;;;6.00;6.00;;;;;18.70;44.15;102163.46;34483;1269;20493;-71
2024/01/21 02:08:15;;;;;;;;;7.00;7.00;;;;;18.72;44.38;102165.57;34601;1268;20023;-72
2024/01/21 02:09:03;;;;;;;;;8.00;7.00;;;;;18.74;44.33;102160.95;34466;1268;19843;-72
2024/01/21 02:09:51;;;;;;;;;7.00;7.00;;;;;18.77;44.34;102162.98;34559;1268;19990;-72
2024/01/21 02:10:38;;;;;;;;;5.00;5.00;;;;;18.79;44.26;102164.14;34480;1269;20360;-72
2024/01/21 02:11:26;;;;;;;;;5.00;5.00;;;;;18.80;43.89;102162.50;34564;1268;18674;-72
2024/01/21 02:12:14;;;;;;;;;8.00;7.00;;;;;18.82;44.06;102161.10;34470;1260;18831;-72
2024/01/21 02:13:01;;;;;;;;;5.00;5.00;;;;;18.84;44.09;102163.92;34527;1268;20246;-72
2024/01/21 02:13:49;;;;;;;;;7.50;7.00;;;;;18.86;43.81;102162.48;34488;1252;20196;-72
2024/01/21 02:14:36;;;;;;;;;5.00;5.00;;;;;18.86;43.86;102158.02;34546;1268;20786;-71
2024/01/21 02:15:24;;;;;;;;;7.00;7.00;;;;;18.88;43.77;102160.46;34487;1268;19973;-70
2024/01/21 02:16:11;;;;;;;;;8.00;7.50;;;;;18.88;43.95;102159.30;34544;1268;19963;-70
2024/01/21 02:17:01;;;;;;;;;7.00;5.00;;;;;18.89;43.82;102158.06;34468;1268;18791;-70
2024/01/21 02:17:49;;;;;;;;;7.00;5.00;;;;;18.89;43.78;102158.66;34464;1261;18589;-70
2024/01/21 02:18:36;;;;;;;;;5.00;5.00;;;;;18.90;43.75;102162.03;34552;1268;21464;-70
2024/01/21 02:19:24;;;;;;;;;7.50;7.50;;;;;18.90;43.74;102163.41;34467;1253;18960;-70
2024/01/21 02:20:11;;;;;;;;;7.00;7.00;;;;;18.90;43.68;102161.95;34558;1253;20034;-70
2024/01/21 02:20:59;;;;;;;;;7.00;7.00;;;;;18.90;43.68;102164.16;34476;1269;18662;-71
2024/01/21 02:21:46;;;;;;;;;8.00;7.00;;;;;18.90;43.73;102161.23;34564;1268;18643;-70
2024/01/21 02:22:34;;;;;;;;;7.00;7.00;;;;;18.90;43.59;102164.87;34478;1253;18561;-71
2024/01/21 02:23:21;;;;;;;;;7.00;5.00;;;;;18.88;43.72;102158.95;34563;1269;20028;-71
2024/01/21 02:24:09;;;;;;;;;;;;;;;18.89;43.67;102157.73;34466;1253;20129;-70
2024/01/21 02:26:19;;;;;;;;;6.00;6.00;;;;;18.88;43.80;102162.42;34482;1268;18608;-70
2024/01/21 02:27:06;;;;;;;;;5.00;5.00;;;;;18.88;43.65;102166.56;34567;1268;18979;-69
2024/01/21 02:27:53;;;;;;;;;8.00;7.50;;;;;18.87;43.83;102163.48;34473;1269;18604;-70
2024/01/21 02:28:41;;;;;;;;;6.33;5.00;;;;;18.87;43.79;102168.08;34591;1269;18844;-70
2024/01/21 02:29:28;;;;;;;;;7.50;7.00;;;;;18.86;43.55;102166.87;34470;1269;18628;-71
2024/01/21 02:30:16;;;;;;;;;5.00;5.00;;;;;18.86;43.83;102167.08;34599;1253;21249;-70
2024/01/21 02:31:03;;;;;;;;;5.00;5.00;;;;;18.85;43.58;102163.66;34473;1269;18544;-70
2024/01/21 02:31:50;;;;;;;;;7.00;7.00;;;;;18.84;43.88;102163.34;34589;1269;20269;-70
2024/01/21 02:32:38;;;;;;;;;8.00;8.00;;;;;18.84;43.94;102165.64;34485;1269;21064;-70
2024/01/21 02:33:26;;;;;;;;;8.00;8.00;;;;;18.83;43.64;102161.14;34602;1268;18856;-70
2024/01/21 02:34:14;;;;;;;;;7.00;7.00;;;;;18.83;43.78;102160.52;34489;1253;19120;-70
2024/01/21 02:35:01;;;;;;;;;7.00;7.00;;;;;18.83;43.95;102163.23;34565;1269;18658;-70
2024/01/21 02:35:49;;;;;;;;;6.00;6.00;;;;;18.82;43.88;102164.36;34490;1268;20245;-70
2024/01/21 02:36:36;;;;;;;;;7.00;5.00;;;;;18.82;43.75;102166.23;34579;1268;19963;-70
2024/01/21 02:37:23;;;;;;;;;7.50;7.00;;;;;18.81;43.76;102163.87;34481;1269;18645;-70
2024/01/21 02:38:11;;;;;;;;;8.00;8.00;;;;;18.80;43.79;102164.70;34593;1253;21295;-70
2024/01/21 02:38:58;;;;;;;;;7.00;7.00;;;;;18.80;44.02;102165.54;34468;1269;21026;-71
2024/01/21 02:39:46;;;;;;;;;7.00;5.50;;;;;18.80;43.81;102165.85;34598;1252;20089;-70
2024/01/21 02:40:33;;;;;;;;;7.00;5.00;;;;;18.79;43.67;102166.60;34494;1269;19947;-70
2024/01/21 02:41:21;;;;;;;;;5.00;5.00;;;;;18.78;43.70;102167.91;34601;1269;18735;-70
2024/01/21 02:42:08;;;;;;;;;7.00;7.00;;;;;18.77;43.95;102170.05;34480;1269;19983;-70
2024/01/21 02:42:55;;;;;;;;;8.00;8.00;;;;;18.76;43.71;102167.71;34621;1268;18694;-70
2024/01/21 02:43:43;;;;;;;;;7.00;5.00;;;;;18.76;43.68;102169.09;34498;1252;18964;-71
2024/01/21 02:44:30;;;;;;;;;7.00;5.00;;;;;18.75;43.89;102170.77;34588;1269;20324;-70
2024/01/21 02:45:18;;;;;;;;;7.00;5.00;;;;;18.74;43.78;102167.14;34517;1269;18658;-70
2024/01/21 02:46:05;;;;;;;;;6.00;6.00;;;;;18.73;43.92;102168.86;34608;1268;18615;-70
2024/01/21 02:46:53;;;;;;;;;5.00;5.00;;;;;18.73;43.96;102168.73;34504;1260;18581;-70
2024/01/21 02:47:40;;;;;;;;;5.00;5.00;;;;;18.73;44.02;102165.31;34619;1261;18685;-70
2024/01/21 02:48:28;;;;;;;;;9.33;7.67;;;;;18.73;43.90;102167.20;34499;1269;20221;-70
2024/01/21 02:49:16;;;;;;;;;7.50;7.50;;;;;18.72;43.99;102164.62;34550;1269;20105;-71
2024/01/21 02:50:04;;;;;;;;;6.00;5.00;;;;;18.71;44.00;102162.66;34417;1269;20210;-70
2024/01/21 02:50:51;;;;;;;;;7.00;5.00;;;;;18.72;43.83;102160.82;34533;1269;20000;-70
2024/01/21 02:51:38;;;;;;;;;7.00;5.00;;;;;18.71;43.88;102159.27;34472;1269;19985;-70
2024/01/21 02:52:26;;;;;;;;;;;;;;;18.70;43.97;102158.20;34620;1260;20210;-70
2024/01/21 02:53:13;;;;;;;;;5.00;5.00;;;;;18.69;44.13;102156.62;34489;1253;20715;-70
2024/01/21 02:54:01;;;;;;;;;5.00;5.00;;;;;18.69;43.96;102158.83;34616;1268;19995;-70
2024/01/21 02:54:48;;;;;;;;;4.50;4.50;;;;;18.67;43.88;102157.85;34490;1269;18518;-71
2024/01/21 02:55:35;;;;;;;;;4.00;4.00;;;;;18.65;44.30;102152.90;34620;1269;18667;-70
2024/01/21 02:56:23;;;;;;;;;5.00;5.00;;;;;18.65;44.27;102158.36;34504;1253;20038;-70
2024/01/21 02:57:10;;;;;;;;;5.00;4.67;;;;;18.64;44.06;102158.63;34476;1269;18746;-71
2024/01/21 02:57:58;;;;;;;;;5.00;5.00;;;;;18.64;44.31;102155.83;34517;1253;18627;-70
2024/01/21 02:58:45;;;;;;;;;5.50;5.00;;;;;18.63;44.23;102157.50;34497;1269;19982;-70
2024/01/21 02:59:32;;;;;;;;;5.00;5.00;;;;;18.63;44.32;102159.89;34515;1269;19971;-70
2024/01/21 03:00:20;;;;;;;;;6.33;5.67;;;;;18.63;44.28;102160.93;34478;1253;20140;-70
2024/01/21 03:01:07;;;;;;;;;7.00;5.00;;;;;18.65;44.34;102165.68;34527;1269;18648;-70
2024/01/21 03:01:55;;;;;;;;;6.00;5.00;;;;;18.64;44.10;102163.09;34492;1269;18663;-70
2024/01/21 03:02:42;;;;;;;;;4.00;4.00;;;;;18.63;44.40;102164.02;34520;1253;18585;-69
2024/01/21 03:03:30;;;;;;;;;5.00;5.00;;;;;18.64;44.13;102166.31;34490;1260;20343;-70
2024/01/21 03:04:17;;;;;;;;;5.50;4.50;;;;;18.63;44.32;102163.73;34539;1269;19959;-70
2024/01/21 03:05:05;;;;;;;;;5.00;5.00;;;;;18.63;44.17;102166.70;34496;1253;20244;-70
2024/01/21 03:05:52;;;;;;;;;7.00;7.00;;;;;18.62;44.32;102163.61;34524;1269;20066;-70
2024/01/21 03:06:39;;;;;;;;;6.33;5.00;;;;;18.63;44.38;102163.95;34497;1268;18608;-70
2024/01/21 03:07:27;;;;;;;;;4.50;4.50;;;;;18.62;44.27;102161.44;34554;1268;18652;-70
2024/01/21 03:08:15;;;;;;;;;5.00;5.00;;;;;18.62;44.40;102160.56;34476;1269;21275;-70
2024/01/21 03:09:03;;;;;;;;;7.00;5.00;;;;;18.61;44.46;102159.82;34541;1260;18948;-70
2024/01/21 03:09:50;;;;;;;;;5.00;5.00;;;;;18.61;44.27;102157.98;34486;1269;19065;-70
2024/01/21 03:10:38;;;;;;;;;7.00;5.00;;;;;18.61;44.24;102154.64;34528;1268;18564;-70
2024/01/21 03:11:25;;;;;;;;;5.00;5.00;;;;;18.61;44.42;102155.48;34495;1269;18608;-70
2024/01/21 03:12:12;;;;;;;;;5.00;5.00;;;;;18.61;44.20;102149.91;34532;1269;18641;-70
2024/01/21 03:13:00;;;;;;;;;9.00;7.00;;;;;18.61;44.36;102152.96;34509;1253;18790;-70
2024/01/21 03:13:48;;;;;;;;;7.00;7.00;;;;;18.60;44.14;102152.70;34528;1269;18641;-70
2024/01/21 03:14:35;;;;;;;;;5.00;5.00;;;;;18.60;44.16;102153.79;34528;1269;20310;-70
2024/01/21 03:15:22;;;;;;;;;8.00;8.00;;;;;18.60;44.20;102152.52;34519;1269;19962;-70
2024/01/21 03:16:10;;;;;;;;;7.00;7.00;;;;;18.60;44.17;102154.59;34494;1263;18604;-70
2024/01/21 03:16:58;;;;;;;;;7.00;7.00;;;;;18.60;44.19;102155.67;34554;1268;18610;-70
2024/01/21 03:17:45;;;;;;;;;5.00;5.00;;;;;18.59;44.26;102157.89;34505;1269;18581;-70
2024/01/21 03:18:32;;;;;;;;;8.00;7.00;;;;;18.59;44.31;102152.45;34543;1269;19945;-70
2024/01/21 03:19:20;;;;;;;;;5.00;5.00;;;;;18.60;44.17;102160.34;34515;1253;18692;-70
2024/01/21 03:20:07;;;;;;;;;7.00;5.67;;;;;18.59;44.32;102157.84;34547;1268;20121;-70
2024/01/21 03:20:55;;;;;;;;;4.50;4.50;;;;;18.59;44.20;102160.43;34494;1260;20180;-70
2024/01/21 03:21:42;;;;;;;;;5.67;4.67;;;;;18.59;44.03;102161.77;34551;1269;18704;-70
2024/01/21 03:22:29;;;;;;;;;5.00;4.67;;;;;18.59;44.12;102165.31;34518;1269;18659;-71
2024/01/21 03:23:18;;;;;;;;;4.50;4.50;;;;;18.59;44.15;102164.23;34553;1268;19949;-71
2024/01/21 03:24:06;;;;;;;;;6.00;4.50;;;;;18.59;44.25;102161.56;34496;1269;18697;-71
2024/01/21 03:24:53;;;;;;;;;5.00;5.00;;;;;18.59;44.16;102160.69;34509;1269;18619;-70
2024/01/21 03:25:41;;;;;;;;;7.00;5.00;;;;;18.59;44.34;102161.35;34498;1268;18951;-70
2024/01/21 03:26:28;;;;;;;;;7.00;7.00;;;;;18.60;44.28;102160.72;34510;1269;19869;-71
2024/01/21 03:27:15;;;;;;;;;6.00;5.00;;;;;18.61;43.94;102163.62;34513;1269;21071;-70
2024/01/21 03:28:03;;;;;;;;;4.00;4.00;;;;;18.63;43.97;102162.02;34529;1253;21265;-71
2024/01/21 03:28:50;;;;;;;;;7.00;5.00;;;;;18.66;43.89;102165.41;34527;1269;20064;-71
2024/01/21 03:29:38;;;;;;;;;7.00;5.00;;;;;18.71;43.53;102164.37;34495;1269;21109;-70
2024/01/21 03:30:26;;;;;;;;;;;;;;;18.74;43.79;102166.94;34536;1268;18845;-70
2024/01/21 03:31:13;;;;;;;;;7.00;6.33;;;;;18.77;43.55;102170.20;34497;1269;20154;-70
2024/01/21 03:32:01;;;;;;;;;8.00;7.00;;;;;18.79;43.62;102170.86;34518;1268;19967;-70
2024/01/21 03:32:48;;;;;;;;;6.33;6.33;;;;;18.80;43.59;102170.64;34509;1269;18643;-70
2024/01/21 03:33:36;;;;;;;;;5.00;5.00;;;;;18.82;43.37;102173.47;34539;1269;18660;-70
2024/01/21 03:34:23;;;;;;;;;5.00;5.00;;;;;18.83;43.51;102175.08;34514;1269;19848;-70
2024/01/21 03:35:11;;;;;;;;;7.00;7.00;;;;;18.84;43.29;102180.00;34546;1260;18825;-70
2024/01/21 03:35:58;;;;;;;;;7.00;7.00;;;;;18.86;43.20;102183.54;34513;1269;18600;-70
2024/01/21 03:36:45;;;;;;;;;7.00;7.00;;;;;18.87;43.19;102185.29;34540;1268;18780;-70
2024/01/21 03:37:33;;;;;;;;;5.00;5.00;;;;;18.87;43.53;102188.58;34531;1253;18632;-70
2024/01/21 03:38:20;;;;;;;;;5.00;5.00;;;;;18.89;43.28;102189.44;34575;1253;20042;-70
2024/01/21 03:39:08;;;;;;;;;7.00;5.00;;;;;18.89;43.08;102194.29;34529;1269;19966;-70
2024/01/21 03:39:55;;;;;;;;;7.00;7.00;;;;;18.90;43.37;102194.70;34556;1268;19988;-70
2024/01/21 03:40:42;;;;;;;;;7.00;7.00;;;;;18.90;43.38;102195.20;34530;1268;18653;-70
2024/01/21 03:41:30;;;;;;;;;5.00;5.00;;;;;18.91;43.31;102196.94;34549;1268;20057;-70
2024/01/21 03:42:17;;;;;;;;;5.00;5.00;;;;;18.90;43.26;102195.27;34471;1269;19864;-69
2024/01/21 03:43:05;;;;;;;;;7.00;7.00;;;;;18.90;43.34;102193.86;34526;1253;20081;-70